createdAt,value
2023-12-31T00:04:54.200Z,98.88
2023-12-31T00:10:03.774Z,98.53
2023-12-31T00:15:11.979Z,98.90
2023-12-31T00:20:19.838Z,98.67
2023-12-31T00:25:32.191Z,98.76
2023-12-31T00:30:40.089Z,98.43
2023-12-31T00:35:49.318Z,97.32
2023-12-31T00:40:57.220Z,96.80
2023-12-31T00:46:05.018Z,96.62
2023-12-31T00:51:12.417Z,97.07
2023-12-31T00:56:19.807Z,96.85
2023-12-31T01:01:27.088Z,96.40
2023-12-31T01:06:34.899Z,95.88
2023-12-31T01:11:42.137Z,95.65
2023-12-31T01:16:50.941Z,95.65
2023-12-31T01:21:59.320Z,95.16
2023-12-31T01:27:07.922Z,95.42
2023-12-31T01:32:15.490Z,95.38
2023-12-31T01:37:23.091Z,95.73
2023-12-31T01:42:30.719Z,95.55
2023-12-31T01:47:39.310Z,95.99
2023-12-31T01:52:48.062Z,95.92
2023-12-31T01:57:55.432Z,95.40
2023-12-31T02:03:04.201Z,95.34
2023-12-31T02:08:11.951Z,95.65
2023-12-31T02:13:22.533Z,95.16
2023-12-31T02:18:32.500Z,95.30
2023-12-31T02:23:40.544Z,95.37
2023-12-31T02:28:47.950Z,95.75
2023-12-31T02:33:55.887Z,96.39
2023-12-31T02:39:03.069Z,96.46
2023-12-31T02:44:10.505Z,96.43
2023-12-31T02:49:18.183Z,96.65
2023-12-31T02:54:25.241Z,96.06
2023-12-31T02:59:32.545Z,95.35
2023-12-31T03:04:43.247Z,95.40
2023-12-31T03:09:50.496Z,95.18
2023-12-31T03:14:58.460Z,94.26
2023-12-31T03:20:06.897Z,94.03
2023-12-31T03:25:14.540Z,93.62
2023-12-31T03:30:22.458Z,92.73
2023-12-31T03:35:30.025Z,92.27
2023-12-31T03:40:37.832Z,92.18
2023-12-31T03:45:45.551Z,93.52
2023-12-31T03:50:52.896Z,94.93
2023-12-31T03:56:00.346Z,96.02
2023-12-31T04:01:08.724Z,95.24
2023-12-31T04:06:16.120Z,94.84
2023-12-31T04:11:23.445Z,95.64
2023-12-31T04:16:31.313Z,95.55
2023-12-31T04:21:38.882Z,96.13
2023-12-31T04:26:47.079Z,96.05
2023-12-31T04:31:55.405Z,95.27
2023-12-31T04:37:03.007Z,94.58
2023-12-31T04:42:10.555Z,94.45
2023-12-31T04:47:17.994Z,94.31
2023-12-31T04:52:25.380Z,93.76
2023-12-31T04:57:32.981Z,94.14
2023-12-31T05:02:41.469Z,94.76
2023-12-31T05:07:49.679Z,95.50
2023-12-31T05:12:57.092Z,95.50
2023-12-31T05:18:04.884Z,94.52
2023-12-31T05:23:12.455Z,93.95
2023-12-31T05:28:20.020Z,94.07
2023-12-31T05:33:27.487Z,94.91
2023-12-31T05:38:34.849Z,95.59
2023-12-31T05:43:43.345Z,95.39
2023-12-31T05:48:50.912Z,95.29
2023-12-31T05:53:58.581Z,94.87
2023-12-31T05:59:05.968Z,94.17
2023-12-31T06:04:13.662Z,93.96
2023-12-31T06:09:21.302Z,94.70
2023-12-31T06:14:28.917Z,93.94
2023-12-31T06:19:37.717Z,94.10
2023-12-31T06:24:45.173Z,93.58
2023-12-31T06:29:52.887Z,93.40
2023-12-31T06:35:00.544Z,94.51
2023-12-31T06:40:10.576Z,94.23
2023-12-31T06:45:17.882Z,93.88
2023-12-31T06:50:25.553Z,94.14
2023-12-31T06:55:32.826Z,94.64
2023-12-31T07:00:40.327Z,94.74
2023-12-31T07:05:49.347Z,95.19
2023-12-31T07:10:57.536Z,95.20
2023-12-31T07:16:05.587Z,95.24
2023-12-31T07:21:13.142Z,95.03
2023-12-31T07:26:30.277Z,94.90
2023-12-31T07:31:37.495Z,95.60
2023-12-31T07:36:45.238Z,96.26
2023-12-31T07:41:52.485Z,96.49
2023-12-31T07:46:59.931Z,96.53
2023-12-31T07:52:08.057Z,97.52
2023-12-31T07:57:16.023Z,98.45
2023-12-31T08:02:23.782Z,98.93
2023-12-31T08:07:31.520Z,99.50
2023-12-31T08:12:39.170Z,100.00
2023-12-31T08:17:46.945Z,99.84
2023-12-31T08:22:54.821Z,98.86
2023-12-31T08:28:02.729Z,99.37
2023-12-31T08:33:10.137Z,98.71
2023-12-31T08:38:17.832Z,98.77
2023-12-31T08:43:25.804Z,98.05
2023-12-31T08:48:33.437Z,98.24
2023-12-31T08:53:41.101Z,98.77
2023-12-31T08:58:48.463Z,99.47
2023-12-31T09:03:56.016Z,99.33
2023-12-31T09:09:04.147Z,99.33
2023-12-31T09:14:11.451Z,99.97
2023-12-31T09:19:19.021Z,99.98
2023-12-31T09:24:28.434Z,100.00
2023-12-31T09:29:35.912Z,100.00
2023-12-31T09:34:43.432Z,100.00
2023-12-31T09:39:51.284Z,100.00
2023-12-31T09:45:00.811Z,100.00
2023-12-31T09:50:11.028Z,100.00
2023-12-31T09:55:19.863Z,99.96
2023-12-31T10:00:28.228Z,99.37
2023-12-31T10:05:37.967Z,99.02
2023-12-31T10:10:45.799Z,98.35
2023-12-31T10:15:55.285Z,97.66
2023-12-31T10:21:02.647Z,97.18
2023-12-31T10:26:12.502Z,96.46
2023-12-31T10:31:21.702Z,95.89
2023-12-31T10:36:30.496Z,95.82
2023-12-31T10:41:40.250Z,95.49
2023-12-31T10:46:50.452Z,94.99
2023-12-31T10:51:59.650Z,94.42
2023-12-31T10:57:08.970Z,93.98
2023-12-31T11:02:19.492Z,93.01
2023-12-31T11:07:28.351Z,92.17
2023-12-31T11:12:35.857Z,91.49
2023-12-31T11:18:16.713Z,91.17
2023-12-31T11:23:35.122Z,90.83
2023-12-31T11:28:51.212Z,90.20
2023-12-31T11:33:59.661Z,90.28
2023-12-31T11:39:16.522Z,89.59
2023-12-31T11:44:43.887Z,89.52
2023-12-31T11:49:56.387Z,89.40
2023-12-31T11:55:04.487Z,89.23
2023-12-31T12:00:13.440Z,88.92
2023-12-31T12:05:20.938Z,88.81
2023-12-31T12:10:28.854Z,88.52
2023-12-31T12:15:40.962Z,88.52
2023-12-31T12:20:49.670Z,88.75
2023-12-31T12:25:59.686Z,88.45
2023-12-31T12:31:10.381Z,88.22
2023-12-31T12:36:19.622Z,88.16
2023-12-31T12:41:26.842Z,88.02
2023-12-31T12:46:35.687Z,87.71
2023-12-31T12:51:43.987Z,87.64
2023-12-31T12:56:51.978Z,87.40
2023-12-31T13:01:59.354Z,87.27
2023-12-31T13:07:08.416Z,87.63
2023-12-31T13:12:16.430Z,87.72
2023-12-31T13:17:25.120Z,87.12
2023-12-31T13:22:33.359Z,86.57
2023-12-31T13:27:41.175Z,86.58
2023-12-31T13:32:48.656Z,86.71
2023-12-31T13:37:56.235Z,86.50
2023-12-31T13:43:04.408Z,86.70
2023-12-31T13:48:12.847Z,86.77
2023-12-31T13:53:20.987Z,86.86
2023-12-31T13:58:28.977Z,86.88
2023-12-31T14:03:37.364Z,87.05
2023-12-31T14:08:45.306Z,87.15
2023-12-31T14:13:52.919Z,87.19
2023-12-31T14:19:01.025Z,86.79
2023-12-31T14:24:09.558Z,87.25
2023-12-31T14:29:16.940Z,87.31
2023-12-31T14:34:24.986Z,87.38
2023-12-31T14:39:32.402Z,87.57
2023-12-31T14:44:39.905Z,86.65
2023-12-31T14:49:47.969Z,87.14
2023-12-31T14:54:55.554Z,87.20
2023-12-31T15:00:02.806Z,87.43
2023-12-31T15:05:17.382Z,87.36
2023-12-31T15:10:25.963Z,87.39
2023-12-31T15:15:33.656Z,87.37
2023-12-31T15:25:15.047Z,87.35
2023-12-31T15:30:22.947Z,87.60
2023-12-31T15:35:31.003Z,87.71
2023-12-31T15:40:40.879Z,88.06
2023-12-31T15:45:48.552Z,87.81
2023-12-31T15:50:56.177Z,87.77
2023-12-31T15:56:03.719Z,87.74
2023-12-31T16:01:11.812Z,88.15
2023-12-31T16:06:19.440Z,88.19
2023-12-31T16:11:27.215Z,88.40
2023-12-31T16:16:35.355Z,87.93
2023-12-31T16:21:44.446Z,88.14
2023-12-31T16:26:51.906Z,87.93
2023-12-31T16:31:59.478Z,88.17
2023-12-31T16:37:17.263Z,88.09
2023-12-31T16:42:25.438Z,87.82
2023-12-31T16:47:35.507Z,88.01
2023-12-31T16:52:44.259Z,88.18
2023-12-31T16:57:51.339Z,88.18
2023-12-31T17:02:58.835Z,87.97
2023-12-31T17:08:06.824Z,88.40
2023-12-31T17:13:15.269Z,88.30
2023-12-31T17:18:22.682Z,88.21
2023-12-31T17:23:30.506Z,87.89
2023-12-31T17:34:20.273Z,88.20
2023-12-31T17:39:27.790Z,88.06
2023-12-31T17:44:35.237Z,87.96
2023-12-31T17:49:43.079Z,87.83
2023-12-31T17:54:51.278Z,88.26
2023-12-31T17:59:59.053Z,88.07
2023-12-31T18:05:07.136Z,88.07
2023-12-31T18:10:14.822Z,88.32
2023-12-31T18:15:22.637Z,88.33
2023-12-31T18:20:30.293Z,88.39
2023-12-31T18:25:37.949Z,88.38
2023-12-31T18:30:47.901Z,88.69
2023-12-31T18:35:58.471Z,88.58
2023-12-31T18:41:06.090Z,88.55
2023-12-31T18:49:20.247Z,88.70
2023-12-31T18:54:27.712Z,88.81
2023-12-31T18:59:35.089Z,88.87
2023-12-31T19:04:43.743Z,88.98
2023-12-31T19:09:51.403Z,88.90
2023-12-31T19:15:00.916Z,89.11
2023-12-31T19:20:11.574Z,88.65
2023-12-31T19:25:19.364Z,88.65
2023-12-31T19:30:28.333Z,88.37
2023-12-31T19:35:35.711Z,88.63
2023-12-31T19:40:45.445Z,89.14
2023-12-31T19:45:54.581Z,89.30
2023-12-31T19:51:01.943Z,88.84
2023-12-31T19:56:10.402Z,89.17
2023-12-31T20:01:17.753Z,89.59
2023-12-31T20:06:26.445Z,90.26
2023-12-31T20:11:36.982Z,90.38
2023-12-31T20:16:44.686Z,90.59
2023-12-31T20:24:46.636Z,90.48
2023-12-31T20:29:55.595Z,90.47
2023-12-31T20:35:04.964Z,90.31
2023-12-31T20:40:15.355Z,90.07
2023-12-31T20:45:24.899Z,89.80
2023-12-31T20:50:33.486Z,89.66
2023-12-31T20:55:41.370Z,89.43
2023-12-31T21:00:49.166Z,90.11
2023-12-31T21:06:00.573Z,89.91
2023-12-31T21:11:09.499Z,90.27
2023-12-31T21:16:31.351Z,91.65
2023-12-31T21:21:42.432Z,92.28
2023-12-31T21:26:52.081Z,91.74
2023-12-31T21:31:59.833Z,92.42
2023-12-31T21:37:09.766Z,92.29
2023-12-31T21:42:17.972Z,92.46
2023-12-31T21:47:27.642Z,92.90
2023-12-31T21:52:34.969Z,93.18
2023-12-31T21:57:43.187Z,93.30
2023-12-31T22:02:52.759Z,92.98
2023-12-31T22:08:00.593Z,92.85
2023-12-31T22:13:08.884Z,93.17
2023-12-31T22:18:16.588Z,93.61
2023-12-31T22:23:24.719Z,93.24
2023-12-31T22:28:33.084Z,93.86
2023-12-31T22:33:41.410Z,94.74
2023-12-31T22:38:49.164Z,93.93
2023-12-31T22:43:56.789Z,93.77
2023-12-31T22:49:04.524Z,94.05
2023-12-31T22:54:12.325Z,93.76
2023-12-31T22:59:19.897Z,94.48
2023-12-31T23:04:27.281Z,94.99
2023-12-31T23:09:34.837Z,94.12
2023-12-31T23:14:42.203Z,93.65
2023-12-31T23:19:49.644Z,93.80
2023-12-31T23:24:57.407Z,94.19
2023-12-31T23:30:06.228Z,94.81
2023-12-31T23:35:14.094Z,95.09
2023-12-31T23:40:21.538Z,95.90
2023-12-31T23:45:29.305Z,95.92
2023-12-31T23:50:36.825Z,95.67
2023-12-31T23:55:44.651Z,95.17
